KJOT/JOT METAR and TAF weather

Enter ICAO airport designator
Station Type Date Time Source
KJOT METAR 2021/04/13 21:55 UTC NOAA

KJOT 132155Z AUTO 26006G16KT 10SM SCT049 14/01 A3011 RMK AO2 T01350006


Station Type Date Time Source
KJOT Decoded METAR 2021/04/13 21:55 UTC NOAA

Joliet, Joliet Regional Airport, IL, United States (KJOT) 41-31-05N 088-10-31W
Apr 13, 2021 - 05:55 PM EDT / 2021.04.13 2155 UTC
Wind: from the W (260 degrees) at 7 MPH (6 KT) gusting to 18 MPH (16 KT):0
Visibility: 10 mile(s):0
Sky conditions: partly cloudy
Temperature: 56.3 F (13.5 C)
Dew Point: 33.1 F (0.6 C)
Relative Humidity: 41%
Pressure (altimeter): 30.11 in. Hg (1019 hPa)
ob: KJOT 132155Z AUTO 26006G16KT 10SM SCT049 14/01 A3011 RMK AO2 T01350006
cycle: 22

Station Type Date Time Source
KJOT TAF UTC NOAA

Error!

Example: see airport list